Portage Glacier, AK

8:01 AM AKST on January 27, 2015 (GMT -0900)
Merrill | Change Station
CLOSE
Current Station
Airport
Location: Anchorage Merrill,
Elevation: 135 ft
Nearby Weather Stations

Elev 135 ft 61.22 °N, 149.85 °W | Updated 8 minutes ago

Light Snow
Light Snow Mist
9 °F
Feels Like -2 °F
N
7
Wind Variable Wind from NNE

Today
High -- | Low -- °F
--% Chance of Precip.
Yesterday
High -- | Low -- °F
Precip. -- in
9:25 AM 4:51 PM
First Quarter, 55% visible
Pressure 30.00 in
Visibility 9.0 miles
Clouds Overcast 4600 ft
Windchill -2 °F
Dew Point 0 °F
Humidity 67%
Rainfall 0.00 in
Snow Depth Not available.
UV 0 out of 12
Pollen Not available.
Air Quality Not available.
Flu Activity Not available.
METAR PAMR 271653Z AUTO 02006KT 9SM -SN BR OVC046 M13/M18 A2998 RMK AO2 SLP157 P0000 T11281178 TSNO

More Conditions Fewer Conditions

Pressure 30.00 in
Visibility 9.0 miles
Clouds Overcast 4600 ft
Windchill -2 °F
Dew Point 0 °F
Humidity 67%
Rainfall 0.00 in
Snow Depth Not available.
UV 0 out of 12
Pollen Not available.
Air Quality Not available.
Flu Activity Not available.
METAR PAMR 271653Z AUTO 02006KT 9SM -SN BR OVC046 M13/M18 A2998 RMK AO2 SLP157 P0000 T11281178 TSNO

More Conditions Fewer Conditions

10-Day Weather Forecast

Almanac

Astronomy

Jan. 27, 2015 Rise Set
Actual Time
Civil Twilight
Nautical Twilight
Astronomical Twilight
Moon
Length of Visible Light
Length of Day
Tomorrow will be .
, % of the Moon is Illuminated

Today's Extremes

State Highs State Lows

Community

WunderPhotos

Upload Photos

1,790,729 photos uploaded!

WunderBlogs® & News

Nearby

Air Quality

  Air Quality AQ Index Pollutant
Not available.

Snow Depth

Station Depth Elevation

Earthquake Activity

City Distance Mag. Time & Date
Minimum magnitude displayed is 2.5.

Coastal Water Temperatures

Place Temperature

Nearby Weather Stations